sensor_id;sensor_type;location;lat;lon;timestamp;P1;durP1;ratioP1;P2;durP2;ratioP2
56960;SDS011;42857;49.768;22.716;2022-07-17T00:00:20;2.88;;;1.52;;
56960;SDS011;42857;49.768;22.716;2022-07-17T00:02:46;3.45;;;1.70;;
56960;SDS011;42857;49.768;22.716;2022-07-17T00:05:16;3.42;;;2.00;;
56960;SDS011;42857;49.768;22.716;2022-07-17T00:07:42;1.80;;;1.52;;
56960;SDS011;42857;49.768;22.716;2022-07-17T00:10:08;2.67;;;1.85;;
56960;SDS011;42857;49.768;22.716;2022-07-17T00:12:34;2.80;;;1.70;;
56960;SDS011;42857;49.768;22.716;2022-07-17T00:15:00;1.63;;;1.52;;
56960;SDS011;42857;49.768;22.716;2022-07-17T00:17:26;1.70;;;1.60;;
56960;SDS011;42857;49.768;22.716;2022-07-17T00:19:52;3.25;;;1.73;;
56960;SDS011;42857;49.768;22.716;2022-07-17T00:22:18;2.90;;;1.80;;
56960;SDS011;42857;49.768;22.716;2022-07-17T00:24:45;2.75;;;2.10;;
56960;SDS011;42857;49.768;22.716;2022-07-17T00:27:11;1.63;;;1.45;;
56960;SDS011;42857;49.768;22.716;2022-07-17T00:29:37;4.13;;;2.00;;
56960;SDS011;42857;49.768;22.716;2022-07-17T00:32:03;2.03;;;1.90;;
56960;SDS011;42857;49.768;22.716;2022-07-17T00:34:29;4.03;;;2.17;;
56960;SDS011;42857;49.768;22.716;2022-07-17T00:36:55;4.75;;;2.00;;
56960;SDS011;42857;49.768;22.716;2022-07-17T00:39:21;2.75;;;1.88;;
56960;SDS011;42857;49.768;22.716;2022-07-17T00:41:47;2.95;;;2.03;;
56960;SDS011;42857;49.768;22.716;2022-07-17T00:44:14;2.47;;;1.90;;
56960;SDS011;42857;49.768;22.716;2022-07-17T00:46:40;3.20;;;1.98;;
56960;SDS011;42857;49.768;22.716;2022-07-17T00:49:06;2.05;;;1.73;;
56960;SDS011;42857;49.768;22.716;2022-07-17T00:51:33;1.70;;;1.60;;
56960;SDS011;42857;49.768;22.716;2022-07-17T00:53:59;2.72;;;1.67;;
56960;SDS011;42857;49.768;22.716;2022-07-17T00:56:25;3.08;;;1.88;;
56960;SDS011;42857;49.768;22.716;2022-07-17T00:58:52;3.05;;;2.00;;
56960;SDS011;42857;49.768;22.716;2022-07-17T01:01:19;3.50;;;2.40;;
56960;SDS011;42857;49.768;22.716;2022-07-17T01:03:45;2.05;;;1.63;;
56960;SDS011;42857;49.768;22.716;2022-07-17T01:06:11;2.28;;;2.00;;
56960;SDS011;42857;49.768;22.716;2022-07-17T01:08:37;2.72;;;2.00;;
56960;SDS011;42857;49.768;22.716;2022-07-17T01:11:03;2.05;;;1.80;;
56960;SDS011;42857;49.768;22.716;2022-07-17T01:13:32;2.95;;;1.83;;
56960;SDS011;42857;49.768;22.716;2022-07-17T01:15:59;2.80;;;2.22;;
56960;SDS011;42857;49.768;22.716;2022-07-17T01:18:25;2.97;;;1.83;;
56960;SDS011;42857;49.768;22.716;2022-07-17T01:20:50;2.83;;;1.88;;
56960;SDS011;42857;49.768;22.716;2022-07-17T01:23:17;3.15;;;2.38;;
56960;SDS011;42857;49.768;22.716;2022-07-17T01:25:44;2.20;;;1.90;;
56960;SDS011;42857;49.768;22.716;2022-07-17T01:28:10;5.30;;;2.17;;
56960;SDS011;42857;49.768;22.716;2022-07-17T01:30:36;2.22;;;1.83;;
56960;SDS011;42857;49.768;22.716;2022-07-17T01:33:09;3.70;;;2.00;;
56960;SDS011;42857;49.768;22.716;2022-07-17T01:35:36;2.90;;;1.75;;
56960;SDS011;42857;49.768;22.716;2022-07-17T01:38:02;3.05;;;1.70;;
56960;SDS011;42857;49.768;22.716;2022-07-17T01:40:28;2.30;;;1.80;;
56960;SDS011;42857;49.768;22.716;2022-07-17T01:42:54;3.80;;;2.05;;
56960;SDS011;42857;49.768;22.716;2022-07-17T01:45:20;4.38;;;2.15;;
56960;SDS011;42857;49.768;22.716;2022-07-17T01:47:46;5.63;;;2.25;;
56960;SDS011;42857;49.768;22.716;2022-07-17T01:50:13;2.05;;;1.80;;
56960;SDS011;42857;49.768;22.716;2022-07-17T01:52:39;2.88;;;2.30;;
56960;SDS011;42857;49.768;22.716;2022-07-17T01:55:07;2.83;;;2.05;;
56960;SDS011;42857;49.768;22.716;2022-07-17T01:57:33;2.20;;;2.00;;
56960;SDS011;42857;49.768;22.716;2022-07-17T01:59:59;2.78;;;2.10;;
56960;SDS011;42857;49.768;22.716;2022-07-17T02:02:25;4.45;;;1.95;;
56960;SDS011;42857;49.768;22.716;2022-07-17T02:04:51;3.50;;;2.20;;
56960;SDS011;42857;49.768;22.716;2022-07-17T02:07:17;3.42;;;1.90;;
56960;SDS011;42857;49.768;22.716;2022-07-17T02:09:43;4.00;;;2.33;;
56960;SDS011;42857;49.768;22.716;2022-07-17T02:12:09;3.80;;;2.30;;
56960;SDS011;42857;49.768;22.716;2022-07-17T02:14:35;2.42;;;2.17;;
56960;SDS011;42857;49.768;22.716;2022-07-17T02:17:01;3.97;;;2.10;;
56960;SDS011;42857;49.768;22.716;2022-07-17T02:19:27;3.40;;;2.20;;
56960;SDS011;42857;49.768;22.716;2022-07-17T02:21:53;2.78;;;1.88;;
56960;SDS011;42857;49.768;22.716;2022-07-17T02:24:19;3.28;;;2.20;;
56960;SDS011;42857;49.768;22.716;2022-07-17T02:26:45;2.67;;;2.08;;
56960;SDS011;42857;49.768;22.716;2022-07-17T02:29:11;2.38;;;2.08;;
56960;SDS011;42857;49.768;22.716;2022-07-17T02:31:37;3.80;;;2.10;;
56960;SDS011;42857;49.768;22.716;2022-07-17T02:34:03;3.08;;;2.20;;
56960;SDS011;42857;49.768;22.716;2022-07-17T02:36:29;2.78;;;2.50;;
56960;SDS011;42857;49.768;22.716;2022-07-17T02:38:55;5.32;;;2.28;;
56960;SDS011;42857;49.768;22.716;2022-07-17T02:41:21;2.28;;;1.88;;
56960;SDS011;42857;49.768;22.716;2022-07-17T02:43:47;2.95;;;1.75;;
56960;SDS011;42857;49.768;22.716;2022-07-17T02:46:13;4.82;;;2.03;;
56960;SDS011;42857;49.768;22.716;2022-07-17T02:48:42;3.78;;;2.13;;
56960;SDS011;42857;49.768;22.716;2022-07-17T02:51:09;3.83;;;2.40;;
56960;SDS011;42857;49.768;22.716;2022-07-17T02:53:35;2.15;;;1.95;;
56960;SDS011;42857;49.768;22.716;2022-07-17T02:56:01;4.13;;;2.90;;
56960;SDS011;42857;49.768;22.716;2022-07-17T02:58:27;2.85;;;2.10;;
56960;SDS011;42857;49.768;22.716;2022-07-17T03:00:53;2.65;;;2.00;;
56960;SDS011;42857;49.768;22.716;2022-07-17T03:03:19;3.60;;;2.30;;
56960;SDS011;42857;49.768;22.716;2022-07-17T03:05:45;3.67;;;2.10;;
56960;SDS011;42857;49.768;22.716;2022-07-17T03:08:11;6.57;;;1.95;;
56960;SDS011;42857;49.768;22.716;2022-07-17T03:10:38;2.70;;;2.05;;
56960;SDS011;42857;49.768;22.716;2022-07-17T03:13:04;2.47;;;2.10;;
56960;SDS011;42857;49.768;22.716;2022-07-17T03:15:30;1.90;;;1.67;;
56960;SDS011;42857;49.768;22.716;2022-07-17T03:17:56;3.17;;;2.10;;
56960;SDS011;42857;49.768;22.716;2022-07-17T03:20:22;3.50;;;2.00;;
56960;SDS011;42857;49.768;22.716;2022-07-17T03:22:48;3.60;;;1.98;;
56960;SDS011;42857;49.768;22.716;2022-07-17T03:25:14;3.15;;;2.00;;
56960;SDS011;42857;49.768;22.716;2022-07-17T03:27:40;2.95;;;2.08;;
56960;SDS011;42857;49.768;22.716;2022-07-17T03:30:06;4.00;;;2.10;;
56960;SDS011;42857;49.768;22.716;2022-07-17T03:32:32;4.35;;;2.10;;
56960;SDS011;42857;49.768;22.716;2022-07-17T03:34:58;4.13;;;1.80;;
56960;SDS011;42857;49.768;22.716;2022-07-17T03:37:25;2.67;;;2.10;;
56960;SDS011;42857;49.768;22.716;2022-07-17T03:39:52;3.03;;;1.98;;
56960;SDS011;42857;49.768;22.716;2022-07-17T03:42:18;2.97;;;2.20;;
56960;SDS011;42857;49.768;22.716;2022-07-17T03:44:44;3.40;;;2.17;;
56960;SDS011;42857;49.768;22.716;2022-07-17T03:47:10;4.05;;;2.10;;
56960;SDS011;42857;49.768;22.716;2022-07-17T03:49:36;3.38;;;2.05;;
56960;SDS011;42857;49.768;22.716;2022-07-17T03:52:02;1.95;;;1.75;;
56960;SDS011;42857;49.768;22.716;2022-07-17T03:54:28;3.83;;;2.20;;
56960;SDS011;42857;49.768;22.716;2022-07-17T03:56:54;3.47;;;1.75;;
56960;SDS011;42857;49.768;22.716;2022-07-17T03:59:20;4.45;;;2.22;;
56960;SDS011;42857;49.768;22.716;2022-07-17T04:01:46;3.30;;;2.17;;
56960;SDS011;42857;49.768;22.716;2022-07-17T04:04:12;2.58;;;2.13;;
56960;SDS011;42857;49.768;22.716;2022-07-17T04:06:38;6.32;;;2.30;;
56960;SDS011;42857;49.768;22.716;2022-07-17T04:09:04;3.40;;;2.50;;
56960;SDS011;42857;49.768;22.716;2022-07-17T04:11:30;3.33;;;2.50;;
56960;SDS011;42857;49.768;22.716;2022-07-17T04:13:56;2.53;;;2.25;;
56960;SDS011;42857;49.768;22.716;2022-07-17T04:16:22;5.32;;;2.35;;
56960;SDS011;42857;49.768;22.716;2022-07-17T04:18:48;2.47;;;2.25;;
56960;SDS011;42857;49.768;22.716;2022-07-17T04:21:14;2.47;;;2.00;;
56960;SDS011;42857;49.768;22.716;2022-07-17T04:23:40;3.22;;;1.92;;
56960;SDS011;42857;49.768;22.716;2022-07-17T04:26:07;5.13;;;1.95;;
56960;SDS011;42857;49.768;22.716;2022-07-17T04:28:33;4.18;;;2.53;;
56960;SDS011;42857;49.768;22.716;2022-07-17T04:30:59;4.47;;;2.15;;
56960;SDS011;42857;49.768;22.716;2022-07-17T04:33:25;4.40;;;2.40;;
56960;SDS011;42857;49.768;22.716;2022-07-17T04:35:51;4.00;;;2.38;;
56960;SDS011;42857;49.768;22.716;2022-07-17T04:38:18;4.75;;;2.20;;
56960;SDS011;42857;49.768;22.716;2022-07-17T04:40:44;3.45;;;2.10;;
56960;SDS011;42857;49.768;22.716;2022-07-17T04:43:11;4.93;;;2.00;;
56960;SDS011;42857;49.768;22.716;2022-07-17T04:45:37;2.75;;;2.00;;
56960;SDS011;42857;49.768;22.716;2022-07-17T04:48:03;5.25;;;2.45;;
56960;SDS011;42857;49.768;22.716;2022-07-17T04:50:29;4.45;;;2.05;;
56960;SDS011;42857;49.768;22.716;2022-07-17T04:52:55;7.20;;;2.22;;
56960;SDS011;42857;49.768;22.716;2022-07-17T04:55:22;6.40;;;2.22;;
56960;SDS011;42857;49.768;22.716;2022-07-17T04:57:48;4.60;;;2.00;;
56960;SDS011;42857;49.768;22.716;2022-07-17T05:00:14;3.08;;;1.90;;
56960;SDS011;42857;49.768;22.716;2022-07-17T05:02:40;2.45;;;2.00;;
56960;SDS011;42857;49.768;22.716;2022-07-17T05:05:06;4.07;;;2.20;;
56960;SDS011;42857;49.768;22.716;2022-07-17T05:07:33;3.22;;;1.95;;
56960;SDS011;42857;49.768;22.716;2022-07-17T05:09:59;3.33;;;2.00;;
56960;SDS011;42857;49.768;22.716;2022-07-17T05:12:24;3.67;;;2.20;;
56960;SDS011;42857;49.768;22.716;2022-07-17T05:14:50;5.47;;;1.85;;
56960;SDS011;42857;49.768;22.716;2022-07-17T05:17:16;2.30;;;1.70;;
56960;SDS011;42857;49.768;22.716;2022-07-17T05:19:42;2.50;;;1.73;;
56960;SDS011;42857;49.768;22.716;2022-07-17T05:22:08;4.22;;;1.92;;
56960;SDS011;42857;49.768;22.716;2022-07-17T05:24:34;2.88;;;1.98;;
56960;SDS011;42857;49.768;22.716;2022-07-17T05:27:00;2.90;;;2.10;;
56960;SDS011;42857;49.768;22.716;2022-07-17T05:29:26;4.93;;;1.95;;
56960;SDS011;42857;49.768;22.716;2022-07-17T05:31:52;3.97;;;1.90;;
56960;SDS011;42857;49.768;22.716;2022-07-17T05:34:18;2.75;;;1.92;;
56960;SDS011;42857;49.768;22.716;2022-07-17T05:36:44;2.63;;;1.83;;
56960;SDS011;42857;49.768;22.716;2022-07-17T05:39:11;4.72;;;1.90;;
56960;SDS011;42857;49.768;22.716;2022-07-17T05:41:37;3.33;;;1.67;;
56960;SDS011;42857;49.768;22.716;2022-07-17T05:44:03;2.00;;;1.35;;
56960;SDS011;42857;49.768;22.716;2022-07-17T05:46:29;4.93;;;1.70;;
56960;SDS011;42857;49.768;22.716;2022-07-17T05:48:55;5.13;;;1.95;;
56960;SDS011;42857;49.768;22.716;2022-07-17T05:51:21;3.45;;;1.52;;
56960;SDS011;42857;49.768;22.716;2022-07-17T05:53:47;6.28;;;2.00;;
56960;SDS011;42857;49.768;22.716;2022-07-17T05:56:13;2.92;;;2.00;;
56960;SDS011;42857;49.768;22.716;2022-07-17T05:58:39;2.70;;;1.52;;
56960;SDS011;42857;49.768;22.716;2022-07-17T06:01:05;2.20;;;1.67;;
56960;SDS011;42857;49.768;22.716;2022-07-17T06:03:31;3.20;;;1.58;;
56960;SDS011;42857;49.768;22.716;2022-07-17T06:05:57;5.10;;;1.77;;
56960;SDS011;42857;49.768;22.716;2022-07-17T06:08:23;3.08;;;1.90;;
56960;SDS011;42857;49.768;22.716;2022-07-17T06:10:49;3.90;;;1.75;;
56960;SDS011;42857;49.768;22.716;2022-07-17T06:13:14;2.40;;;1.40;;
56960;SDS011;42857;49.768;22.716;2022-07-17T06:15:40;4.07;;;1.73;;
56960;SDS011;42857;49.768;22.716;2022-07-17T06:18:06;2.65;;;1.25;;
56960;SDS011;42857;49.768;22.716;2022-07-17T06:20:32;4.40;;;1.50;;
56960;SDS011;42857;49.768;22.716;2022-07-17T06:22:58;3.60;;;1.70;;
56960;SDS011;42857;49.768;22.716;2022-07-17T06:25:24;3.10;;;1.73;;
56960;SDS011;42857;49.768;22.716;2022-07-17T06:27:50;4.97;;;1.65;;
56960;SDS011;42857;49.768;22.716;2022-07-17T06:30:16;2.22;;;1.30;;
56960;SDS011;42857;49.768;22.716;2022-07-17T06:32:42;4.03;;;1.67;;
56960;SDS011;42857;49.768;22.716;2022-07-17T06:35:09;3.95;;;1.80;;
56960;SDS011;42857;49.768;22.716;2022-07-17T06:37:35;4.70;;;1.60;;
56960;SDS011;42857;49.768;22.716;2022-07-17T06:40:02;4.80;;;1.30;;
56960;SDS011;42857;49.768;22.716;2022-07-17T06:42:28;5.65;;;2.20;;
56960;SDS011;42857;49.768;22.716;2022-07-17T06:44:54;3.65;;;1.40;;
56960;SDS011;42857;49.768;22.716;2022-07-17T06:47:20;3.10;;;1.30;;
56960;SDS011;42857;49.768;22.716;2022-07-17T06:49:46;3.97;;;1.42;;
56960;SDS011;42857;49.768;22.716;2022-07-17T06:52:12;1.40;;;1.20;;
56960;SDS011;42857;49.768;22.716;2022-07-17T06:54:38;3.53;;;1.40;;
56960;SDS011;42857;49.768;22.716;2022-07-17T06:57:04;1.98;;;1.38;;
56960;SDS011;42857;49.768;22.716;2022-07-17T06:59:30;2.60;;;1.23;;
56960;SDS011;42857;49.768;22.716;2022-07-17T07:01:56;1.90;;;1.15;;
56960;SDS011;42857;49.768;22.716;2022-07-17T07:04:22;2.10;;;1.42;;
56960;SDS011;42857;49.768;22.716;2022-07-17T07:06:48;3.58;;;1.40;;
56960;SDS011;42857;49.768;22.716;2022-07-17T07:09:14;7.05;;;1.73;;
56960;SDS011;42857;49.768;22.716;2022-07-17T07:11:40;1.60;;;1.30;;
56960;SDS011;42857;49.768;22.716;2022-07-17T07:14:06;3.13;;;1.25;;
56960;SDS011;42857;49.768;22.716;2022-07-17T07:16:33;1.75;;;1.20;;
56960;SDS011;42857;49.768;22.716;2022-07-17T07:18:59;2.00;;;1.02;;
56960;SDS011;42857;49.768;22.716;2022-07-17T07:21:25;1.45;;;1.17;;
56960;SDS011;42857;49.768;22.716;2022-07-17T07:23:52;3.53;;;1.25;;
56960;SDS011;42857;49.768;22.716;2022-07-17T07:26:18;1.55;;;1.25;;
56960;SDS011;42857;49.768;22.716;2022-07-17T07:28:44;1.25;;;1.15;;
56960;SDS011;42857;49.768;22.716;2022-07-17T07:31:09;2.60;;;1.23;;
56960;SDS011;42857;49.768;22.716;2022-07-17T07:33:36;2.00;;;1.30;;
56960;SDS011;42857;49.768;22.716;2022-07-17T07:36:02;1.50;;;1.00;;
56960;SDS011;42857;49.768;22.716;2022-07-17T07:38:28;1.40;;;1.30;;
56960;SDS011;42857;49.768;22.716;2022-07-17T07:40:54;1.10;;;1.00;;
56960;SDS011;42857;49.768;22.716;2022-07-17T07:43:20;2.63;;;1.25;;
56960;SDS011;42857;49.768;22.716;2022-07-17T07:45:46;1.60;;;1.20;;
56960;SDS011;42857;49.768;22.716;2022-07-17T07:48:12;2.90;;;1.10;;
56960;SDS011;42857;49.768;22.716;2022-07-17T07:50:39;2.40;;;1.23;;
56960;SDS011;42857;49.768;22.716;2022-07-17T07:53:04;2.47;;;1.48;;
56960;SDS011;42857;49.768;22.716;2022-07-17T07:55:30;3.22;;;1.38;;
56960;SDS011;42857;49.768;22.716;2022-07-17T07:58:10;2.22;;;1.30;;
56960;SDS011;42857;49.768;22.716;2022-07-17T08:03:03;3.58;;;2.40;;
56960;SDS011;42857;49.768;22.716;2022-07-17T08:05:29;3.40;;;1.83;;
56960;SDS011;42857;49.768;22.716;2022-07-17T08:07:55;5.47;;;1.50;;
56960;SDS011;42857;49.768;22.716;2022-07-17T08:10:21;1.83;;;1.50;;
56960;SDS011;42857;49.768;22.716;2022-07-17T08:12:47;2.72;;;1.08;;
56960;SDS011;42857;49.768;22.716;2022-07-17T08:15:15;1.80;;;0.80;;
56960;SDS011;42857;49.768;22.716;2022-07-17T08:17:41;1.08;;;0.98;;
56960;SDS011;42857;49.768;22.716;2022-07-17T08:20:08;1.85;;;1.23;;
56960;SDS011;42857;49.768;22.716;2022-07-17T08:22:34;4.38;;;1.40;;
56960;SDS011;42857;49.768;22.716;2022-07-17T08:25:00;4.93;;;1.35;;
56960;SDS011;42857;49.768;22.716;2022-07-17T08:27:26;1.70;;;1.42;;
56960;SDS011;42857;49.768;22.716;2022-07-17T08:29:52;1.40;;;1.10;;
56960;SDS011;42857;49.768;22.716;2022-07-17T08:32:18;1.63;;;1.20;;
56960;SDS011;42857;49.768;22.716;2022-07-17T08:34:44;1.10;;;1.00;;
56960;SDS011;42857;49.768;22.716;2022-07-17T08:37:10;2.15;;;1.17;;
56960;SDS011;42857;49.768;22.716;2022-07-17T08:39:36;1.45;;;1.02;;
56960;SDS011;42857;49.768;22.716;2022-07-17T08:42:02;2.05;;;1.20;;
56960;SDS011;42857;49.768;22.716;2022-07-17T08:44:28;2.58;;;1.08;;
56960;SDS011;42857;49.768;22.716;2022-07-17T08:46:54;2.90;;;1.10;;
56960;SDS011;42857;49.768;22.716;2022-07-17T08:49:21;1.55;;;1.20;;
56960;SDS011;42857;49.768;22.716;2022-07-17T08:51:47;3.70;;;1.25;;
56960;SDS011;42857;49.768;22.716;2022-07-17T08:54:13;1.55;;;1.10;;
56960;SDS011;42857;49.768;22.716;2022-07-17T08:56:40;1.85;;;1.27;;
56960;SDS011;42857;49.768;22.716;2022-07-17T08:59:06;2.55;;;1.15;;
56960;SDS011;42857;49.768;22.716;2022-07-17T09:01:31;2.67;;;1.10;;
56960;SDS011;42857;49.768;22.716;2022-07-17T09:04:01;2.00;;;1.20;;
56960;SDS011;42857;49.768;22.716;2022-07-17T09:06:31;2.65;;;1.20;;
56960;SDS011;42857;49.768;22.716;2022-07-17T09:09:04;1.55;;;0.90;;
56960;SDS011;42857;49.768;22.716;2022-07-17T09:11:41;2.05;;;0.90;;
56960;SDS011;42857;49.768;22.716;2022-07-17T09:14:07;1.23;;;1.13;;
56960;SDS011;42857;49.768;22.716;2022-07-17T09:16:34;0.93;;;0.80;;
56960;SDS011;42857;49.768;22.716;2022-07-17T09:19:01;4.63;;;1.40;;
56960;SDS011;42857;49.768;22.716;2022-07-17T09:21:27;4.50;;;1.30;;
56960;SDS011;42857;49.768;22.716;2022-07-17T09:24:06;1.45;;;1.20;;
56960;SDS011;42857;49.768;22.716;2022-07-17T09:26:33;2.20;;;0.98;;
56960;SDS011;42857;49.768;22.716;2022-07-17T09:29:02;1.40;;;1.10;;
56960;SDS011;42857;49.768;22.716;2022-07-17T09:31:29;1.42;;;1.05;;
56960;SDS011;42857;49.768;22.716;2022-07-17T09:33:55;1.55;;;0.90;;
56960;SDS011;42857;49.768;22.716;2022-07-17T09:36:22;1.20;;;0.90;;
56960;SDS011;42857;49.768;22.716;2022-07-17T09:38:48;0.88;;;0.80;;
56960;SDS011;42857;49.768;22.716;2022-07-17T09:41:15;1.58;;;1.20;;
56960;SDS011;42857;49.768;22.716;2022-07-17T09:43:44;1.13;;;0.90;;
56960;SDS011;42857;49.768;22.716;2022-07-17T09:46:14;1.42;;;1.10;;
56960;SDS011;42857;49.768;22.716;2022-07-17T09:48:42;2.75;;;1.08;;
56960;SDS011;42857;49.768;22.716;2022-07-17T09:51:12;3.58;;;0.90;;
56960;SDS011;42857;49.768;22.716;2022-07-17T09:53:38;2.05;;;1.02;;
56960;SDS011;42857;49.768;22.716;2022-07-17T09:56:05;0.70;;;0.70;;
56960;SDS011;42857;49.768;22.716;2022-07-17T09:58:32;2.90;;;1.13;;
56960;SDS011;42857;49.768;22.716;2022-07-17T10:01:01;2.67;;;1.00;;
56960;SDS011;42857;49.768;22.716;2022-07-17T10:03:27;2.40;;;0.85;;
56960;SDS011;42857;49.768;22.716;2022-07-17T10:05:54;2.50;;;0.90;;
56960;SDS011;42857;49.768;22.716;2022-07-17T10:08:20;1.60;;;1.00;;
56960;SDS011;42857;49.768;22.716;2022-07-17T10:10:46;2.13;;;1.00;;
56960;SDS011;42857;49.768;22.716;2022-07-17T10:13:13;1.23;;;0.90;;
56960;SDS011;42857;49.768;22.716;2022-07-17T10:15:40;3.97;;;1.70;;
56960;SDS011;42857;49.768;22.716;2022-07-17T10:18:07;1.30;;;0.90;;
56960;SDS011;42857;49.768;22.716;2022-07-17T10:20:33;1.38;;;0.80;;
56960;SDS011;42857;49.768;22.716;2022-07-17T10:22:59;0.75;;;0.70;;
56960;SDS011;42857;49.768;22.716;2022-07-17T10:25:25;0.88;;;0.70;;
56960;SDS011;42857;49.768;22.716;2022-07-17T10:27:53;2.83;;;0.88;;
56960;SDS011;42857;49.768;22.716;2022-07-17T10:30:20;2.05;;;1.05;;
56960;SDS011;42857;49.768;22.716;2022-07-17T10:32:52;2.85;;;0.80;;
56960;SDS011;42857;49.768;22.716;2022-07-17T10:35:18;1.30;;;0.90;;
56960;SDS011;42857;49.768;22.716;2022-07-17T10:37:44;1.67;;;0.82;;
56960;SDS011;42857;49.768;22.716;2022-07-17T10:40:11;3.25;;;0.95;;
56960;SDS011;42857;49.768;22.716;2022-07-17T10:42:50;1.90;;;1.10;;
56960;SDS011;42857;49.768;22.716;2022-07-17T10:45:20;0.77;;;0.63;;
56960;SDS011;42857;49.768;22.716;2022-07-17T10:50:16;1.13;;;0.75;;
56960;SDS011;42857;49.768;22.716;2022-07-17T10:52:43;1.15;;;0.80;;
56960;SDS011;42857;49.768;22.716;2022-07-17T10:55:21;0.88;;;0.85;;
56960;SDS011;42857;49.768;22.716;2022-07-17T10:57:48;2.13;;;1.20;;
56960;SDS011;42857;49.768;22.716;2022-07-17T11:00:17;1.40;;;0.88;;
56960;SDS011;42857;49.768;22.716;2022-07-17T11:02:43;0.70;;;0.60;;
56960;SDS011;42857;49.768;22.716;2022-07-17T11:05:10;1.35;;;1.00;;
56960;SDS011;42857;49.768;22.716;2022-07-17T11:07:47;1.75;;;1.13;;
56960;SDS011;42857;49.768;22.716;2022-07-17T11:10:13;1.00;;;0.88;;
56960;SDS011;42857;49.768;22.716;2022-07-17T11:12:39;0.80;;;0.70;;
56960;SDS011;42857;49.768;22.716;2022-07-17T11:15:05;0.80;;;0.73;;
56960;SDS011;42857;49.768;22.716;2022-07-17T11:17:31;2.50;;;1.05;;
56960;SDS011;42857;49.768;22.716;2022-07-17T11:19:58;0.98;;;0.80;;
56960;SDS011;42857;49.768;22.716;2022-07-17T11:22:24;1.40;;;0.88;;
56960;SDS011;42857;49.768;22.716;2022-07-17T11:24:50;1.42;;;1.00;;
56960;SDS011;42857;49.768;22.716;2022-07-17T11:27:21;1.50;;;1.20;;
56960;SDS011;42857;49.768;22.716;2022-07-17T11:29:47;1.02;;;0.93;;
56960;SDS011;42857;49.768;22.716;2022-07-17T11:32:13;2.05;;;1.00;;
56960;SDS011;42857;49.768;22.716;2022-07-17T11:34:39;1.10;;;0.90;;
56960;SDS011;42857;49.768;22.716;2022-07-17T11:37:06;2.05;;;0.90;;
56960;SDS011;42857;49.768;22.716;2022-07-17T11:39:39;1.73;;;0.80;;
56960;SDS011;42857;49.768;22.716;2022-07-17T11:42:09;1.25;;;0.93;;
56960;SDS011;42857;49.768;22.716;2022-07-17T11:44:35;3.40;;;0.82;;
56960;SDS011;42857;49.768;22.716;2022-07-17T11:47:02;2.17;;;0.75;;
56960;SDS011;42857;49.768;22.716;2022-07-17T11:52:07;1.25;;;0.75;;
56960;SDS011;42857;49.768;22.716;2022-07-17T11:54:42;1.23;;;0.80;;
56960;SDS011;42857;49.768;22.716;2022-07-17T11:57:08;1.95;;;0.77;;
56960;SDS011;42857;49.768;22.716;2022-07-17T11:59:34;2.30;;;1.00;;
56960;SDS011;42857;49.768;22.716;2022-07-17T12:02:07;0.70;;;0.70;;
56960;SDS011;42857;49.768;22.716;2022-07-17T12:04:34;1.63;;;0.70;;
56960;SDS011;42857;49.768;22.716;2022-07-17T12:07:01;1.02;;;0.88;;
56960;SDS011;42857;49.768;22.716;2022-07-17T12:09:28;1.08;;;0.90;;
56960;SDS011;42857;49.768;22.716;2022-07-17T12:11:54;1.15;;;1.00;;
56960;SDS011;42857;49.768;22.716;2022-07-17T12:14:20;1.20;;;0.77;;
56960;SDS011;42857;49.768;22.716;2022-07-17T12:16:46;0.98;;;0.88;;
56960;SDS011;42857;49.768;22.716;2022-07-17T12:19:16;2.17;;;0.90;;
56960;SDS011;42857;49.768;22.716;2022-07-17T12:21:52;1.15;;;0.82;;
56960;SDS011;42857;49.768;22.716;2022-07-17T12:24:22;0.85;;;0.70;;
56960;SDS011;42857;49.768;22.716;2022-07-17T12:26:49;2.00;;;0.80;;
56960;SDS011;42857;49.768;22.716;2022-07-17T12:29:15;3.33;;;0.90;;
56960;SDS011;42857;49.768;22.716;2022-07-17T12:31:41;2.20;;;0.82;;
56960;SDS011;42857;49.768;22.716;2022-07-17T12:34:07;1.67;;;0.68;;
56960;SDS011;42857;49.768;22.716;2022-07-17T12:36:34;2.25;;;0.80;;
56960;SDS011;42857;49.768;22.716;2022-07-17T12:39:00;0.90;;;0.80;;
56960;SDS011;42857;49.768;22.716;2022-07-17T12:41:26;1.42;;;1.00;;
56960;SDS011;42857;49.768;22.716;2022-07-17T12:43:52;1.92;;;0.90;;
56960;SDS011;42857;49.768;22.716;2022-07-17T12:46:18;0.85;;;0.77;;
56960;SDS011;42857;49.768;22.716;2022-07-17T12:48:44;2.03;;;0.90;;
56960;SDS011;42857;49.768;22.716;2022-07-17T12:51:11;1.15;;;0.80;;
56960;SDS011;42857;49.768;22.716;2022-07-17T12:53:38;1.65;;;1.42;;
56960;SDS011;42857;49.768;22.716;2022-07-17T12:56:04;1.98;;;1.10;;
56960;SDS011;42857;49.768;22.716;2022-07-17T12:58:31;2.78;;;1.10;;
56960;SDS011;42857;49.768;22.716;2022-07-17T13:00:57;3.20;;;1.00;;
56960;SDS011;42857;49.768;22.716;2022-07-17T13:03:23;2.25;;;0.77;;
56960;SDS011;42857;49.768;22.716;2022-07-17T13:05:49;0.88;;;0.80;;
56960;SDS011;42857;49.768;22.716;2022-07-17T13:08:15;1.30;;;0.85;;
56960;SDS011;42857;49.768;22.716;2022-07-17T13:10:41;2.10;;;0.77;;
56960;SDS011;42857;49.768;22.716;2022-07-17T13:13:07;1.45;;;0.90;;
56960;SDS011;42857;49.768;22.716;2022-07-17T13:15:33;2.22;;;1.00;;
56960;SDS011;42857;49.768;22.716;2022-07-17T13:17:59;1.02;;;0.73;;
56960;SDS011;42857;49.768;22.716;2022-07-17T13:20:25;1.10;;;1.00;;
56960;SDS011;42857;49.768;22.716;2022-07-17T13:22:51;0.88;;;0.70;;
56960;SDS011;42857;49.768;22.716;2022-07-17T13:25:17;2.38;;;0.90;;
56960;SDS011;42857;49.768;22.716;2022-07-17T13:27:43;1.10;;;0.80;;
56960;SDS011;42857;49.768;22.716;2022-07-17T13:30:10;1.35;;;0.80;;
56960;SDS011;42857;49.768;22.716;2022-07-17T13:32:36;2.13;;;0.85;;
56960;SDS011;42857;49.768;22.716;2022-07-17T13:35:02;1.00;;;0.90;;
56960;SDS011;42857;49.768;22.716;2022-07-17T13:37:28;1.77;;;0.90;;
56960;SDS011;42857;49.768;22.716;2022-07-17T13:39:54;2.67;;;0.80;;
56960;SDS011;42857;49.768;22.716;2022-07-17T13:42:20;0.80;;;0.80;;
56960;SDS011;42857;49.768;22.716;2022-07-17T13:44:46;0.70;;;0.70;;
56960;SDS011;42857;49.768;22.716;2022-07-17T13:47:12;1.23;;;0.75;;
56960;SDS011;42857;49.768;22.716;2022-07-17T13:49:38;1.52;;;0.90;;
56960;SDS011;42857;49.768;22.716;2022-07-17T13:52:04;2.15;;;0.90;;
56960;SDS011;42857;49.768;22.716;2022-07-17T13:54:30;1.10;;;0.93;;
56960;SDS011;42857;49.768;22.716;2022-07-17T13:56:56;2.13;;;1.00;;
56960;SDS011;42857;49.768;22.716;2022-07-17T13:59:24;1.98;;;0.90;;
56960;SDS011;42857;49.768;22.716;2022-07-17T14:01:50;1.15;;;0.95;;
56960;SDS011;42857;49.768;22.716;2022-07-17T14:04:16;1.05;;;0.90;;
56960;SDS011;42857;49.768;22.716;2022-07-17T14:06:42;0.93;;;0.82;;
56960;SDS011;42857;49.768;22.716;2022-07-17T14:09:09;1.70;;;0.90;;
56960;SDS011;42857;49.768;22.716;2022-07-17T14:11:35;2.00;;;0.98;;
56960;SDS011;42857;49.768;22.716;2022-07-17T14:14:01;1.25;;;0.90;;
56960;SDS011;42857;49.768;22.716;2022-07-17T14:16:27;1.38;;;1.00;;
56960;SDS011;42857;49.768;22.716;2022-07-17T14:18:53;1.50;;;1.25;;
56960;SDS011;42857;49.768;22.716;2022-07-17T14:21:30;2.25;;;1.20;;
56960;SDS011;42857;49.768;22.716;2022-07-17T14:23:56;1.05;;;0.90;;
56960;SDS011;42857;49.768;22.716;2022-07-17T14:26:22;3.53;;;1.00;;
56960;SDS011;42857;49.768;22.716;2022-07-17T14:28:48;1.67;;;1.08;;
56960;SDS011;42857;49.768;22.716;2022-07-17T14:31:14;1.23;;;1.13;;
56960;SDS011;42857;49.768;22.716;2022-07-17T14:33:41;3.25;;;1.30;;
56960;SDS011;42857;49.768;22.716;2022-07-17T14:36:07;1.55;;;1.23;;